Main page
METAR-TAF:

METAR-TAF

Airports :

Jask, Iran

latitude: 26-38N, longitude: 057-46E, elevation: 3 m

Current weather observation

The report was made 40 minutes ago, at 03:00 UTC
Wind 6 kt from the East
Temperature 27°C
Humidity 100%
Pressure 1008 hPa
Visibility: 3000 m
mist

METAR: OIZJ 290300Z 09006KT 3000 BR NSC 27/27 Q1008

Time: 08:10 (03:40 UTC)


TAF: missing

Weather observations and forecasts of more than 4000 airports (METAR and TAF reports).

The available stations are represented by yellow and red dots on the map.

Hover mouse over dot to see the name of the station.

Then click to see weather observations and forecasts.

To change the map : click on the green buttons with a black cross to zoom in, on the green button with a dash to zoom out, or on the green arrows for adjacent maps.


METAR-TAF: